Rostein — LLHI — position and weather

sailwx.info

Track history (hours):
 
Tides and Currents Weather Stations Pressure Air Temp Water Temp Dewpoint Dewpoint Depression Visibility Wind Speed Wind Dir Waves Ship Positions

Rostein

Last reported at 2017-Nov-24 02:00 UTC. Time now 2017-Nov-24 02:20 UTC.
Position N 62°48' E 006°41'.

Length 57 m; draft 5 m.

Type: Cargo ship. MMSI: 257210000.

Date/timePositionNaut miles runAvg speedWind from/ knotsBaromVisibWave heightAir tempDewpointWater temp
2017-Nov-24 02:00N 62°48' E 006°41'3 5.7
2017-Nov-24 01:30N 62°50' E 006°44'1 2.7
2017-Nov-24 01:00N 62°51' E 006°47'0 0.0
2017-Nov-24 00:30N 62°51' E 006°47'0 0.0
2017-Nov-24 00:00N 62°51' E 006°47'4 7.2
2017-Nov-23 23:30N 62°48' E 006°41'1 1.4
2017-Nov-23 23:00N 62°48' E 006°40'0 0.0
2017-Nov-23 22:30N 62°48' E 006°40'0 0.2
2017-Nov-23 22:01N 62°48' E 006°41'610.8
2017-Nov-23 21:29N 62°43' E 006°33'613.1
2017-Nov-23 21:00N 62°39' E 006°23'713.3
2017-Nov-23 20:30N 62°34' E 006°12'612.3
2017-Nov-23 20:00N 62°29' E 006°06'612.7
2017-Nov-23 19:30N 62°26' E 005°54'612.2
2017-Nov-23 19:00N 62°21' E 005°46'510.6
2017-Nov-23 18:30N 62°18' E 005°36'612.4
2017-Nov-23 18:00N 62°17' E 005°23'612.4
2017-Nov-23 17:30N 62°14' E 005°11'611.5
2017-Nov-23 17:00N 62°10' E 005°04'612.2
2017-Nov-23 16:30N 62°04' E 005°08'611.9
2017-Nov-23 16:00N 61°58' E 005°09'510.4
2017-Nov-23 15:30N 61°53' E 005°11'3 6.5
2017-Nov-23 15:00N 61°49' E 005°13'612.3
2017-Nov-23 14:30N 61°46' E 005°02'611.1
2017-Nov-23 14:00N 61°41' E 004°58'5 9.8
2017-Nov-23 13:31N 61°36' E 005°01'0 0.8
2017-Nov-23 13:00N 61°36' E 005°02'0 0.0
2017-Nov-23 12:30N 61°36' E 005°02'2 3.9
2017-Nov-23 12:00N 61°37' E 004°58'3 6.6
2017-Nov-23 11:30N 61°38' E 004°52'0 0.0
2017-Nov-23 11:00N 61°38' E 004°52'0 0.2
2017-Nov-23 10:30N 61°38' E 004°52'1 2.6
2017-Nov-23 10:00N 61°38' E 004°54'2 3.6
2017-Nov-23 09:30N 61°36' E 004°57'4 8.1
2017-Nov-23 09:00N 61°33' E 004°58'0 0.2
2017-Nov-23 08:30N 61°33' E 004°58'0 0.2
2017-Nov-23 08:00N 61°32' E 004°58'0 0.0
2017-Nov-23 07:30N 61°32' E 004°58'0 0.0
2017-Nov-23 07:00N 61°32' E 004°58'1 2.2
2017-Nov-23 06:30N 61°33' E 004°60'3 6.3
2017-Nov-23 06:00N 61°36' E 005°02'0 0.2
2017-Nov-23 05:30N 61°36' E 005°02'0 0.0
2017-Nov-23 05:00N 61°36' E 005°02'2 4.3
2017-Nov-23 04:30N 61°36' E 004°58'3 6.5
2017-Nov-23 04:00N 61°33' E 004°58'0 0.1
2017-Nov-23 03:29N 61°32' E 004°58'0 0.0
2017-Nov-23 03:00N 61°32' E 004°58'0 0.0
2017-Nov-23 02:30N 61°32' E 004°58'0 0.0
2017-Nov-23 02:00N 61°32' E 004°58'0 0.0
2017-Nov-23 01:30N 61°32' E 004°58'1 1.1
2017-Nov-23 01:00N 61°32' E 004°59'4 8.7
2017-Nov-23 00:30N 61°28' E 004°59'510.4
2017-Nov-23 00:00N 61°23' E 005°01'5 9.6
2017-Nov-22 23:30N 61°18' E 005°01'5 9.1
2017-Nov-22 22:59N 61°14' E 004°56'612.1
2017-Nov-22 22:30N 61°10' E 005°05'612.3
2017-Nov-22 22:00N 61°06' E 005°14'713.2
2017-Nov-22 21:30N 61°03' E 005°26'4 7.2
2017-Nov-22 21:00N 60°59' E 005°29'0 0.0
2017-Nov-22 20:30N 60°59' E 005°29'0 0.0
2017-Nov-22 19:59N 60°59' E 005°29'5 9.3
2017-Nov-22 19:30N 61°04' E 005°29'  
2017-Nov-20 00:30N 63°11' E 007°26'611.9
2017-Nov-20 00:00N 63°08' E 007°37'4 7.2
2017-Nov-19 23:30N 63°07' E 007°44'0 0.0
2017-Nov-19 23:00N 63°07' E 007°44'0 0.0
2017-Nov-19 22:31N 63°07' E 007°44'5 9.4
2017-Nov-19 22:00N 63°07' E 007°34'612.9
2017-Nov-19 21:30N 63°04' E 007°21'712.8
2017-Nov-19 20:59N 63°01' E 007°08'613.0
2017-Nov-19 20:30N 62°59' E 006°55'612.6
2017-Nov-19 20:00N 62°54' E 006°46'713.2
2017-Nov-19 19:30N 62°49' E 006°38'5 9.1
2017-Nov-19 19:00N 62°47' E 006°28'0 0.0
2017-Nov-19 18:30N 62°47' E 006°28'0 0.4
2017-Nov-19 18:00N 62°47' E 006°29'5 9.6
2017-Nov-19 17:30N 62°42' E 006°29'612.0
2017-Nov-19 17:00N 62°38' E 006°20'612.1
2017-Nov-19 16:30N 62°34' E 006°11'611.1
2017-Nov-19 16:00N 62°28' E 006°08'0 0.2
2017-Nov-19 15:30N 62°28' E 006°07'0 0.0
2017-Nov-19 15:00N 62°28' E 006°07'0 0.0
2017-Nov-19 14:30N 62°28' E 006°07'0 0.0
2017-Nov-19 14:00N 62°28' E 006°07'0 0.0
2017-Nov-19 13:30N 62°28' E 006°07'1 1.5
2017-Nov-19 13:00N 62°29' E 006°06'4 8.5
2017-Nov-19 12:29N 62°24' E 006°04'510.7
2017-Nov-19 12:00N 62°23' E 006°15'611.1
2017-Nov-19 11:29N 62°25' E 006°27'612.4
2017-Nov-19 11:00N 62°27' E 006°39'612.8
2017-Nov-19 10:30N 62°26' E 006°53'3 6.4
2017-Nov-19 10:00N 62°23' E 006°53'0 0.0
2017-Nov-19 09:30N 62°23' E 006°53'0 0.1
2017-Nov-19 09:00N 62°23' E 006°53'0 0.0
2017-Nov-19 08:30N 62°23' E 006°53'0 0.1
2017-Nov-19 07:59N 62°23' E 006°53'0 0.0
2017-Nov-19 07:29N 62°23' E 006°53'1 1.3
2017-Nov-19 07:00N 62°23' E 006°54'1 1.7
2017-Nov-19 06:30N 62°24' E 006°55'2 3.9
2017-Nov-19 06:00N 62°26' E 006°54'2 5.0
2017-Nov-19 05:30N 62°27' E 006°49'3 5.5
2017-Nov-19 05:00N 62°27' E 006°44'3 5.5
2017-Nov-19 04:30N 62°27' E 006°38'3 5.6
2017-Nov-19 04:00N 62°26' E 006°32'3 5.5
2017-Nov-19 03:30N 62°25' E 006°27'3 5.4
2017-Nov-19 03:00N 62°24' E 006°21'3 5.3
2017-Nov-19 02:30N 62°23' E 006°16'3 5.6
2017-Nov-19 02:00N 62°21' E 006°10'3 6.8
2017-Nov-19 01:30N 62°19' E 006°05'3 6.9
2017-Nov-19 01:00N 62°17' E 005°59'3 6.7
2017-Nov-19 00:29N 62°14' E 005°55'3 6.5
2017-Nov-19 00:00N 62°12' E 005°49'3 6.5
2017-Nov-18 23:30N 62°12' E 005°42'3 6.4
2017-Nov-18 23:00N 62°11' E 005°36'4 7.3
2017-Nov-18 22:30N 62°12' E 005°29'4 7.7
2017-Nov-18 22:01N 62°10' E 005°22'4 7.8
2017-Nov-18 21:30N 62°13' E 005°15'4 8.3
2017-Nov-18 20:59N 62°12' E 005°06'4 7.6
2017-Nov-18 20:30N 62°08' E 005°05'4 8.5
2017-Nov-18 20:00N 62°04' E 005°07'4 8.0
2017-Nov-18 19:30N 62°01' E 005°09'3 6.8
2017-Nov-18 19:00N 61°57' E 005°09'4 7.9
2017-Nov-18 18:30N 61°53' E 005°10'4 8.3
2017-Nov-18 18:00N 61°50' E 005°16'5 9.1
2017-Nov-18 17:30N 61°48' E 005°07'5 9.1
2017-Nov-18 17:00N 61°45' E 005°00'4 8.7
2017-Nov-18 16:30N 61°41' E 004°57'4 8.6
2017-Nov-18 16:00N 61°37' E 004°58'4 7.8
2017-Nov-18 15:30N 61°33' E 005°00'4 8.6
2017-Nov-18 15:00N 61°29' E 004°59'4 8.4
2017-Nov-18 14:30N 61°24' E 004°59'4 8.6
2017-Nov-18 14:00N 61°21' E 005°02'3 6.8
2017-Nov-18 13:30N 61°18' E 004°59'4 7.3
2017-Nov-18 13:00N 61°14' E 004°55'4 8.2
2017-Nov-18 12:30N 61°11' E 005°01'5 9.2
2017-Nov-18 12:00N 61°07' E 005°02'4 8.6
2017-Nov-18 11:29N 61°03' E 004°56'4 9.2
2017-Nov-18 11:00N 61°00' E 004°49'4 8.0
2017-Nov-18 10:30N 60°57' E 004°46'4 8.6
2017-Nov-18 10:00N 60°52' E 004°47'4 8.1
2017-Nov-18 09:30N 60°48' E 004°44'4 8.5
2017-Nov-18 09:00N 60°45' E 004°47'5 9.1
2017-Nov-18 08:30N 60°40' E 004°50'5 9.8
2017-Nov-18 08:00N 60°36' E 004°54'5 9.9
2017-Nov-18 07:30N 60°31' E 004°57'4 9.1
2017-Nov-18 07:00N 60°27' E 005°01'4 8.4
2017-Nov-18 06:30N 60°24' E 005°08'4 8.6
2017-Nov-18 06:00N 60°20' E 005°11'5 8.9
2017-Nov-18 05:30N 60°16' E 005°09'5 9.1
2017-Nov-18 04:59N 60°12' E 005°13'5 9.2
2017-Nov-18 04:30N 60°08' E 005°18'5 9.2
2017-Nov-18 04:00N 60°03' E 005°19'5 9.0
2017-Nov-18 03:30N 59°59' E 005°22'5 9.4
2017-Nov-18 03:00N 59°56' E 005°29'5 9.1
2017-Nov-18 02:30N 59°52' E 005°33'5 8.9
2017-Nov-18 02:00N 59°47' E 005°34'4 8.8
2017-Nov-18 01:30N 59°44' E 005°29'5 9.6
2017-Nov-18 01:00N 59°40' E 005°22'5 9.3
2017-Nov-18 00:30N 59°36' E 005°17'5 9.7
2017-Nov-18 00:00N 59°32' E 005°12'5 9.6
2017-Nov-17 23:30N 59°27' E 005°13'5 8.9
2017-Nov-17 23:00N 59°23' E 005°17'4 8.8
2017-Nov-17 22:29N 59°19' E 005°20'4 9.2
2017-Nov-17 22:00N 59°15' E 005°21'5 9.2
2017-Nov-17 21:30N 59°10' E 005°22'3 6.7
2017-Nov-17 21:00N 59°09' E 005°28'5 9.2
2017-Nov-17 20:30N 59°12' E 005°35'5 9.5
2017-Nov-17 20:00N 59°15' E 005°42'5 9.3
2017-Nov-17 19:29N 59°18' E 005°49'4 9.1
2017-Nov-17 19:00N 59°22' E 005°55'610.7
2017-Nov-17 18:29N 59°27' E 005°53'4 8.8
2017-Nov-17 18:00N 59°31' E 005°50'1 0.1
2017-Nov-17 13:33N 59°31' E 005°49'0 0.1
2017-Nov-17 13:30N 59°31' E 005°49'0 0.0
2017-Nov-17 13:00N 59°31' E 005°49'0 0.0
2017-Nov-17 12:30N 59°31' E 005°49'0 0.0
2017-Nov-17 12:00N 59°31' E 005°49'0 0.0
2017-Nov-17 11:30N 59°31' E 005°49'0 0.0
2017-Nov-17 11:00N 59°31' E 005°49'0 0.0
2017-Nov-17 10:30N 59°31' E 005°49'0 0.0
2017-Nov-17 10:00N 59°31' E 005°49'0 0.1
2017-Nov-17 09:30N 59°31' E 005°49'4 9.1
2017-Nov-17 09:00N 59°27' E 005°53'612.0
2017-Nov-17 08:30N 59°21' E 005°55'612.4
2017-Nov-17 08:00N 59°17' E 005°46'612.7
2017-Nov-17 07:30N 59°12' E 005°37'612.7
2017-Nov-17 07:00N 59°09' E 005°27'5 8.9
2017-Nov-17 06:30N 59°12' E 005°20'612.4
2017-Nov-17 06:00N 59°18' E 005°20'510.1
2017-Nov-17 05:30N 59°23' E 005°18'5 9.4
2017-Nov-17 05:00N 59°27' E 005°13'5 9.2
2017-Nov-17 04:30N 59°31' E 005°12'510.1
2017-Nov-17 04:00N 59°36' E 005°16'611.0
2017-Nov-17 03:30N 59°41' E 005°22'610.7
2017-Nov-17 03:00N 59°44' E 005°30'611.1
2017-Nov-17 02:30N 59°50' E 005°33'611.9
2017-Nov-17 02:00N 59°55' E 005°30'612.3
2017-Nov-17 01:30N 59°59' E 005°20'611.9
2017-Nov-17 01:00N 60°05' E 005°19'612.6
2017-Nov-17 00:30N 60°11' E 005°13'611.4
2017-Nov-17 00:00N 60°17' E 005°10'611.6
2017-Nov-16 23:30N 60°22' E 005°10'611.7
2017-Nov-16 22:59N 60°27' E 005°01'612.1
2017-Nov-16 22:30N 60°32' E 004°56'611.8
2017-Nov-16 22:00N 60°38' E 004°52'611.7
2017-Nov-16 21:30N 60°43' E 004°48'511.1
2017-Nov-16 21:00N 60°48' E 004°44'5 9.2
2017-Nov-16 20:30N 60°53' E 004°46'510.3
2017-Nov-16 20:00N 60°58' E 004°45'510.0
2017-Nov-16 19:30N 61°02' E 004°52'611.9
2017-Nov-16 19:00N 61°06' E 005°01'612.2
2017-Nov-16 18:30N 61°12' E 005°01'611.6
2017-Nov-16 18:00N 61°17' E 004°55'5 9.7
2017-Nov-16 17:29N 61°20' E 005°03'611.9
2017-Nov-16 17:00N 61°25' E 004°58'611.7
2017-Nov-16 16:30N 61°31' E 004°60'511.1
2017-Nov-16 16:00N 61°36' E 004°58'611.4
2017-Nov-16 15:30N 61°42' E 004°57'611.3
2017-Nov-16 15:00N 61°47' E 005°03'611.7
2017-Nov-16 14:30N 61°50' E 005°14'4 8.3
2017-Nov-16 14:00N 61°53' E 005°10'510.4
2017-Nov-16 13:30N 61°58' E 005°09'611.8
2017-Nov-16 13:00N 62°04' E 005°07'611.5
2017-Nov-16 12:30N 62°10' E 005°04'4 8.9
2017-Nov-16 11:59N 62°13' E 005°11'612.4
2017-Nov-16 11:30N 62°10' E 005°22'611.4
2017-Nov-16 11:00N 62°11' E 005°34'612.5
2017-Nov-16 10:30N 62°12' E 005°47'612.1
2017-Nov-16 10:00N 62°16' E 005°58'612.0
2017-Nov-16 09:30N 62°20' E 006°06'611.2
2017-Nov-16 09:00N 62°26' E 006°02'611.6
2017-Nov-16 08:30N 62°31' E 006°09'2 5.0
2017-Nov-16 08:00N 62°33' E 006°08'0 0.0
2017-Nov-16 07:30N 62°33' E 006°08'0 0.6
2017-Nov-16 07:00N 62°33' E 006°09'1 1.5
2017-Nov-16 06:30N 62°34' E 006°09'0 0.9
2017-Nov-16 06:00N 62°34' E 006°09'0 0.7
2017-Nov-16 05:30N 62°34' E 006°10'1 1.4
2017-Nov-16 05:00N 62°34' E 006°11'1 2.6
2017-Nov-16 04:30N 62°35' E 006°14'2 4.0
2017-Nov-16 04:00N 62°36' E 006°17'2 4.5
2017-Nov-16 03:30N 62°38' E 006°21'3 5.1
2017-Nov-16 03:00N 62°40' E 006°25'3 5.3
2017-Nov-16 02:30N 62°42' E 006°28'2 5.0
2017-Nov-16 02:00N 62°44' E 006°30'3 5.4
2017-Nov-16 01:30N 62°46' E 006°33'2 4.9
2017-Nov-16 01:00N 62°48' E 006°37'3 6.0
2017-Nov-16 00:30N 62°51' E 006°40'4 7.3
2017-Nov-16 00:00N 62°54' E 006°45'5 9.2
2017-Nov-15 23:30N 62°57' E 006°51'4 8.8
2017-Nov-15 23:00N 62°60' E 006°59'5 9.7
2017-Nov-15 22:30N 63°01' E 007°09'5 9.5
2017-Nov-15 22:00N 63°03' E 007°19'5 9.5
2017-Nov-15 21:30N 63°05' E 007°28'4 7.9
2017-Nov-15 21:00N 63°07' E 007°35'3 5.7
2017-Nov-15 20:30N 63°09' E 007°41'3 5.8
2017-Nov-15 20:00N 63°11' E 007°46'2 5.0
2017-Nov-15 19:30N 63°12' E 007°50'2 4.0
2017-Nov-15 19:00N 63°13' E 007°55'1 2.0
2017-Nov-15 18:30N 63°13' E 007°57'1 2.2
2017-Nov-15 18:00N 63°14' E 007°59'1 2.2
2017-Nov-15 17:30N 63°14' E 008°01'1 2.6
2017-Nov-15 17:00N 63°15' E 008°03'1 2.2
2017-Nov-15 16:30N 63°15' E 008°05'1 2.5
2017-Nov-15 16:00N 63°16' E 008°08'2 3.0
2017-Nov-15 15:30N 63°17' E 008°10'2 3.2
2017-Nov-15 14:59N 63°18' E 008°13'1 2.4
2017-Nov-15 14:30N 63°19' E 008°15'2 3.3
2017-Nov-15 14:00N 63°20' E 008°18'2 3.8
2017-Nov-15 13:30N 63°21' E 008°21'2 4.6
2017-Nov-15 13:00N 63°23' E 008°25'2 4.6
2017-Nov-15 12:29N 63°24' E 008°29'2 4.1
2017-Nov-15 12:00N 63°25' E 008°34'2 4.1
2017-Nov-15 11:30N 63°25' E 008°38'2 4.3
2017-Nov-15 10:59N 63°26' E 008°43'2 4.7
2017-Nov-15 10:30N 63°27' E 008°47'3 6.9
2017-Nov-15 10:00N 63°28' E 008°55'4 7.1
2017-Nov-15 09:30N 63°29' E 009°02'4 7.8
2017-Nov-15 09:00N 63°31' E 009°10'4 7.6
2017-Nov-15 08:30N 63°33' E 009°17'4 8.4
2017-Nov-15 08:00N 63°35' E 009°25'5 9.1
2017-Nov-15 07:30N 63°39' E 009°29'4 8.9
2017-Nov-15 07:00N 63°43' E 009°32'4 8.6
2017-Nov-15 06:29N 63°48' E 009°34'4 9.1
2017-Nov-15 06:00N 63°51' E 009°40'5 9.1
2017-Nov-15 05:30N 63°55' E 009°47'5 9.2
2017-Nov-15 05:00N 63°58' E 009°53'5 9.1
2017-Nov-15 04:30N 64°02' E 010°00'3 6.7
2017-Nov-15 04:00N 64°05' E 010°00'5 9.2
2017-Nov-15 03:30N 64°09' E 010°06'5 9.5
2017-Nov-15 03:00N 64°13' E 010°12'4 9.2
2017-Nov-15 02:30N 64°16' E 010°19'5 9.4
2017-Nov-15 01:59N 64°20' E 010°27'4 9.1
2017-Nov-15 01:30N 64°24' E 010°26'4 8.8
2017-Nov-15 01:00N 64°28' E 010°29'5 9.3
2017-Nov-15 00:30N 64°32' E 010°37'5 9.3
2017-Nov-15 00:00N 64°36' E 010°43'5 9.8
2017-Nov-14 23:30N 64°37' E 010°53'611.0
2017-Nov-14 23:00N 64°35' E 011°04'510.3
2017-Nov-14 22:30N 64°30' E 011°09'0 0.9
2017-Nov-14 22:00N 64°30' E 011°10'0 0.0
2017-Nov-14 21:30N 64°30' E 011°10'0 0.0
2017-Nov-14 21:00N 64°30' E 011°10'0 0.0
2017-Nov-14 20:30N 64°30' E 011°10'0 0.0
2017-Nov-14 20:00N 64°30' E 011°10'0 0.0
2017-Nov-14 19:30N 64°30' E 011°10'0 0.0
2017-Nov-14 19:00N 64°30' E 011°10'0 0.0
2017-Nov-14 18:30N 64°30' E 011°10'0 0.0
2017-Nov-14 17:59N 64°30' E 011°10'0 0.0
2017-Nov-14 17:30N 64°30' E 011°10'0 0.0
2017-Nov-14 17:00N 64°30' E 011°10'0 0.0
2017-Nov-14 16:29N 64°30' E 011°10'0 0.0
2017-Nov-14 16:00N 64°30' E 011°10'0 0.0
2017-Nov-14 15:30N 64°30' E 011°10'0 0.0
2017-Nov-14 15:00N 64°30' E 011°10'4 6.9
2017-Nov-14 14:30N 64°33' E 011°07'5 9.7
2017-Nov-14 14:00N 64°37' E 010°60'510.2
2017-Nov-14 13:30N 64°38' E 010°49'510.4
2017-Nov-14 13:00N 64°40' E 010°37'5 9.9
2017-Nov-14 12:30N 64°42' E 010°27'3 5.9
2017-Nov-14 11:56N 64°44' E 010°20'3 7.2
2017-Nov-14 11:30N 64°42' E 010°26'4 8.3
2017-Nov-14 11:00N 64°40' E 010°34'4 8.1
2017-Nov-14 10:30N 64°41' E 010°44'4 8.5
2017-Nov-14 10:00N 64°42' E 010°52'4 7.8
2017-Nov-14 09:30N 64°45' E 010°59'2 5.0
2017-Nov-14 09:00N 64°47' E 011°03'3 6.0
2017-Nov-14 08:30N 64°49' E 011°08'3 6.8
2017-Nov-14 08:00N 64°51' E 011°14'0 0.9
2017-Nov-14 07:30N 64°52' E 011°15'0 0.0
2017-Nov-14 07:00N 64°52' E 011°15'0 0.0
2017-Nov-14 06:30N 64°52' E 011°15'0 0.0
2017-Nov-14 06:00N 64°52' E 011°15'0 0.0
2017-Nov-14 05:30N 64°52' E 011°15'0 0.0
2017-Nov-14 05:00N 64°52' E 011°15'0 0.0
2017-Nov-14 04:30N 64°52' E 011°15'0 0.0
2017-Nov-14 04:00N 64°52' E 011°15'0 0.0
2017-Nov-14 03:30N 64°52' E 011°15'0 0.0
2017-Nov-14 03:00N 64°52' E 011°15'0 0.0
2017-Nov-14 02:30N 64°52' E 011°15'0 0.0
2017-Nov-14 02:00N 64°52' E 011°15'  
Track history (hours):
 
Tides and Currents Weather Stations Pressure Air Temp Water Temp Dewpoint Dewpoint Depression Visibility Wind Speed Wind Dir Waves Ship Positions

Rostein

Last reported at 2017-Nov-24 02:00 UTC. Time now 2017-Nov-24 02:20 UTC.
Position N 62°48' E 006°41'.

Length 57 m; draft 5 m.

Type: Cargo ship. MMSI: 257210000.

Date/timePositionNaut miles runAvg speedWind from/ knotsBaromVisibWave heightAir tempDewpointWater temp
2017-Nov-24 02:00N 62°48' E 006°41'3 5.7
2017-Nov-24 01:30N 62°50' E 006°44'1 2.7
2017-Nov-24 01:00N 62°51' E 006°47'0 0.0
2017-Nov-24 00:30N 62°51' E 006°47'0 0.0
2017-Nov-24 00:00N 62°51' E 006°47'4 7.2
2017-Nov-23 23:30N 62°48' E 006°41'1 1.4
2017-Nov-23 23:00N 62°48' E 006°40'0 0.0
2017-Nov-23 22:30N 62°48' E 006°40'0 0.2
2017-Nov-23 22:01N 62°48' E 006°41'610.8
2017-Nov-23 21:29N 62°43' E 006°33'613.1
2017-Nov-23 21:00N 62°39' E 006°23'713.3
2017-Nov-23 20:30N 62°34' E 006°12'612.3
2017-Nov-23 20:00N 62°29' E 006°06'612.7
2017-Nov-23 19:30N 62°26' E 005°54'612.2
2017-Nov-23 19:00N 62°21' E 005°46'510.6
2017-Nov-23 18:30N 62°18' E 005°36'612.4
2017-Nov-23 18:00N 62°17' E 005°23'612.4
2017-Nov-23 17:30N 62°14' E 005°11'611.5
2017-Nov-23 17:00N 62°10' E 005°04'612.2
2017-Nov-23 16:30N 62°04' E 005°08'611.9
2017-Nov-23 16:00N 61°58' E 005°09'510.4
2017-Nov-23 15:30N 61°53' E 005°11'3 6.5
2017-Nov-23 15:00N 61°49' E 005°13'612.3
2017-Nov-23 14:30N 61°46' E 005°02'611.1
2017-Nov-23 14:00N 61°41' E 004°58'5 9.8
2017-Nov-23 13:31N 61°36' E 005°01'0 0.8
2017-Nov-23 13:00N 61°36' E 005°02'0 0.0
2017-Nov-23 12:30N 61°36' E 005°02'2 3.9
2017-Nov-23 12:00N 61°37' E 004°58'3 6.6
2017-Nov-23 11:30N 61°38' E 004°52'0 0.0
2017-Nov-23 11:00N 61°38' E 004°52'0 0.2
2017-Nov-23 10:30N 61°38' E 004°52'1 2.6
2017-Nov-23 10:00N 61°38' E 004°54'2 3.6
2017-Nov-23 09:30N 61°36' E 004°57'4 8.1
2017-Nov-23 09:00N 61°33' E 004°58'0 0.2
2017-Nov-23 08:30N 61°33' E 004°58'0 0.2
2017-Nov-23 08:00N 61°32' E 004°58'0 0.0
2017-Nov-23 07:30N 61°32' E 004°58'0 0.0
2017-Nov-23 07:00N 61°32' E 004°58'1 2.2
2017-Nov-23 06:30N 61°33' E 004°60'3 6.3
2017-Nov-23 06:00N 61°36' E 005°02'0 0.2
2017-Nov-23 05:30N 61°36' E 005°02'0 0.0
2017-Nov-23 05:00N 61°36' E 005°02'2 4.3
2017-Nov-23 04:30N 61°36' E 004°58'3 6.5
2017-Nov-23 04:00N 61°33' E 004°58'0 0.1
2017-Nov-23 03:29N 61°32' E 004°58'0 0.0
2017-Nov-23 03:00N 61°32' E 004°58'0 0.0
2017-Nov-23 02:30N 61°32' E 004°58'0 0.0
2017-Nov-23 02:00N 61°32' E 004°58'0 0.0
2017-Nov-23 01:30N 61°32' E 004°58'1 1.1
2017-Nov-23 01:00N 61°32' E 004°59'4 8.7
2017-Nov-23 00:30N 61°28' E 004°59'510.4
2017-Nov-23 00:00N 61°23' E 005°01'5 9.6
2017-Nov-22 23:30N 61°18' E 005°01'5 9.1
2017-Nov-22 22:59N 61°14' E 004°56'612.1
2017-Nov-22 22:30N 61°10' E 005°05'612.3
2017-Nov-22 22:00N 61°06' E 005°14'713.2
2017-Nov-22 21:30N 61°03' E 005°26'4 7.2
2017-Nov-22 21:00N 60°59' E 005°29'0 0.0
2017-Nov-22 20:30N 60°59' E 005°29'0 0.0
2017-Nov-22 19:59N 60°59' E 005°29'5 9.3
2017-Nov-22 19:30N 61°04' E 005°29'  
2017-Nov-20 00:30N 63°11' E 007°26'611.9
2017-Nov-20 00:00N 63°08' E 007°37'4 7.2
2017-Nov-19 23:30N 63°07' E 007°44'0 0.0
2017-Nov-19 23:00N 63°07' E 007°44'0 0.0
2017-Nov-19 22:31N 63°07' E 007°44'5 9.4
2017-Nov-19 22:00N 63°07' E 007°34'612.9
2017-Nov-19 21:30N 63°04' E 007°21'712.8
2017-Nov-19 20:59N 63°01' E 007°08'613.0
2017-Nov-19 20:30N 62°59' E 006°55'612.6
2017-Nov-19 20:00N 62°54' E 006°46'713.2
2017-Nov-19 19:30N 62°49' E 006°38'5 9.1
2017-Nov-19 19:00N 62°47' E 006°28'0 0.0
2017-Nov-19 18:30N 62°47' E 006°28'0 0.4
2017-Nov-19 18:00N 62°47' E 006°29'5 9.6
2017-Nov-19 17:30N 62°42' E 006°29'612.0
2017-Nov-19 17:00N 62°38' E 006°20'612.1
2017-Nov-19 16:30N 62°34' E 006°11'611.1
2017-Nov-19 16:00N 62°28' E 006°08'0 0.2
2017-Nov-19 15:30N 62°28' E 006°07'0 0.0
2017-Nov-19 15:00N 62°28' E 006°07'0 0.0
2017-Nov-19 14:30N 62°28' E 006°07'0 0.0
2017-Nov-19 14:00N 62°28' E 006°07'0 0.0
2017-Nov-19 13:30N 62°28' E 006°07'1 1.5
2017-Nov-19 13:00N 62°29' E 006°06'4 8.5
2017-Nov-19 12:29N 62°24' E 006°04'510.7
2017-Nov-19 12:00N 62°23' E 006°15'611.1
2017-Nov-19 11:29N 62°25' E 006°27'612.4
2017-Nov-19 11:00N 62°27' E 006°39'612.8
2017-Nov-19 10:30N 62°26' E 006°53'3 6.4
2017-Nov-19 10:00N 62°23' E 006°53'0 0.0
2017-Nov-19 09:30N 62°23' E 006°53'0 0.1
2017-Nov-19 09:00N 62°23' E 006°53'0 0.0
2017-Nov-19 08:30N 62°23' E 006°53'0 0.1
2017-Nov-19 07:59N 62°23' E 006°53'0 0.0
2017-Nov-19 07:29N 62°23' E 006°53'1 1.3
2017-Nov-19 07:00N 62°23' E 006°54'1 1.7
2017-Nov-19 06:30N 62°24' E 006°55'2 3.9
2017-Nov-19 06:00N 62°26' E 006°54'2 5.0
2017-Nov-19 05:30N 62°27' E 006°49'3 5.5
2017-Nov-19 05:00N 62°27' E 006°44'3 5.5
2017-Nov-19 04:30N 62°27' E 006°38'3 5.6
2017-Nov-19 04:00N 62°26' E 006°32'3 5.5
2017-Nov-19 03:30N 62°25' E 006°27'3 5.4
2017-Nov-19 03:00N 62°24' E 006°21'3 5.3
2017-Nov-19 02:30N 62°23' E 006°16'3 5.6
2017-Nov-19 02:00N 62°21' E 006°10'3 6.8
2017-Nov-19 01:30N 62°19' E 006°05'3 6.9
2017-Nov-19 01:00N 62°17' E 005°59'3 6.7
2017-Nov-19 00:29N 62°14' E 005°55'3 6.5
2017-Nov-19 00:00N 62°12' E 005°49'3 6.5
2017-Nov-18 23:30N 62°12' E 005°42'3 6.4
2017-Nov-18 23:00N 62°11' E 005°36'4 7.3
2017-Nov-18 22:30N 62°12' E 005°29'4 7.7
2017-Nov-18 22:01N 62°10' E 005°22'4 7.8
2017-Nov-18 21:30N 62°13' E 005°15'4 8.3
2017-Nov-18 20:59N 62°12' E 005°06'4 7.6
2017-Nov-18 20:30N 62°08' E 005°05'4 8.5
2017-Nov-18 20:00N 62°04' E 005°07'4 8.0
2017-Nov-18 19:30N 62°01' E 005°09'3 6.8
2017-Nov-18 19:00N 61°57' E 005°09'4 7.9
2017-Nov-18 18:30N 61°53' E 005°10'4 8.3
2017-Nov-18 18:00N 61°50' E 005°16'5 9.1
2017-Nov-18 17:30N 61°48' E 005°07'5 9.1
2017-Nov-18 17:00N 61°45' E 005°00'4 8.7
2017-Nov-18 16:30N 61°41' E 004°57'4 8.6
2017-Nov-18 16:00N 61°37' E 004°58'4 7.8
2017-Nov-18 15:30N 61°33' E 005°00'4 8.6
2017-Nov-18 15:00N 61°29' E 004°59'4 8.4
2017-Nov-18 14:30N 61°24' E 004°59'4 8.6
2017-Nov-18 14:00N 61°21' E 005°02'3 6.8
2017-Nov-18 13:30N 61°18' E 004°59'4 7.3
2017-Nov-18 13:00N 61°14' E 004°55'4 8.2
2017-Nov-18 12:30N 61°11' E 005°01'5 9.2
2017-Nov-18 12:00N 61°07' E 005°02'4 8.6
2017-Nov-18 11:29N 61°03' E 004°56'4 9.2
2017-Nov-18 11:00N 61°00' E 004°49'4 8.0
2017-Nov-18 10:30N 60°57' E 004°46'4 8.6
2017-Nov-18 10:00N 60°52' E 004°47'4 8.1
2017-Nov-18 09:30N 60°48' E 004°44'4 8.5
2017-Nov-18 09:00N 60°45' E 004°47'5 9.1
2017-Nov-18 08:30N 60°40' E 004°50'5 9.8
2017-Nov-18 08:00N 60°36' E 004°54'5 9.9
2017-Nov-18 07:30N 60°31' E 004°57'4 9.1
2017-Nov-18 07:00N 60°27' E 005°01'4 8.4
2017-Nov-18 06:30N 60°24' E 005°08'4 8.6
2017-Nov-18 06:00N 60°20' E 005°11'5 8.9
2017-Nov-18 05:30N 60°16' E 005°09'5 9.1
2017-Nov-18 04:59N 60°12' E 005°13'5 9.2
2017-Nov-18 04:30N 60°08' E 005°18'5 9.2
2017-Nov-18 04:00N 60°03' E 005°19'5 9.0
2017-Nov-18 03:30N 59°59' E 005°22'5 9.4
2017-Nov-18 03:00N 59°56' E 005°29'5 9.1
2017-Nov-18 02:30N 59°52' E 005°33'5 8.9
2017-Nov-18 02:00N 59°47' E 005°34'4 8.8
2017-Nov-18 01:30N 59°44' E 005°29'5 9.6
2017-Nov-18 01:00N 59°40' E 005°22'5 9.3
2017-Nov-18 00:30N 59°36' E 005°17'5 9.7
2017-Nov-18 00:00N 59°32' E 005°12'5 9.6
2017-Nov-17 23:30N 59°27' E 005°13'5 8.9
2017-Nov-17 23:00N 59°23' E 005°17'4 8.8
2017-Nov-17 22:29N 59°19' E 005°20'4 9.2
2017-Nov-17 22:00N 59°15' E 005°21'5 9.2
2017-Nov-17 21:30N 59°10' E 005°22'3 6.7
2017-Nov-17 21:00N 59°09' E 005°28'5 9.2
2017-Nov-17 20:30N 59°12' E 005°35'5 9.5
2017-Nov-17 20:00N 59°15' E 005°42'5 9.3
2017-Nov-17 19:29N 59°18' E 005°49'4 9.1
2017-Nov-17 19:00N 59°22' E 005°55'610.7
2017-Nov-17 18:29N 59°27' E 005°53'4 8.8
2017-Nov-17 18:00N 59°31' E 005°50'1 0.1
2017-Nov-17 13:33N 59°31' E 005°49'0 0.1
2017-Nov-17 13:30N 59°31' E 005°49'0 0.0
2017-Nov-17 13:00N 59°31' E 005°49'0 0.0
2017-Nov-17 12:30N 59°31' E 005°49'0 0.0
2017-Nov-17 12:00N 59°31' E 005°49'0 0.0
2017-Nov-17 11:30N 59°31' E 005°49'0 0.0
2017-Nov-17 11:00N 59°31' E 005°49'0 0.0
2017-Nov-17 10:30N 59°31' E 005°49'0 0.0
2017-Nov-17 10:00N 59°31' E 005°49'0 0.1
2017-Nov-17 09:30N 59°31' E 005°49'4 9.1
2017-Nov-17 09:00N 59°27' E 005°53'612.0
2017-Nov-17 08:30N 59°21' E 005°55'612.4
2017-Nov-17 08:00N 59°17' E 005°46'612.7
2017-Nov-17 07:30N 59°12' E 005°37'612.7
2017-Nov-17 07:00N 59°09' E 005°27'5 8.9
2017-Nov-17 06:30N 59°12' E 005°20'612.4
2017-Nov-17 06:00N 59°18' E 005°20'510.1
2017-Nov-17 05:30N 59°23' E 005°18'5 9.4
2017-Nov-17 05:00N 59°27' E 005°13'5 9.2
2017-Nov-17 04:30N 59°31' E 005°12'510.1
2017-Nov-17 04:00N 59°36' E 005°16'611.0
2017-Nov-17 03:30N 59°41' E 005°22'610.7
2017-Nov-17 03:00N 59°44' E 005°30'611.1
2017-Nov-17 02:30N 59°50' E 005°33'611.9
2017-Nov-17 02:00N 59°55' E 005°30'612.3
2017-Nov-17 01:30N 59°59' E 005°20'611.9
2017-Nov-17 01:00N 60°05' E 005°19'612.6
2017-Nov-17 00:30N 60°11' E 005°13'611.4
2017-Nov-17 00:00N 60°17' E 005°10'611.6
2017-Nov-16 23:30N 60°22' E 005°10'611.7
2017-Nov-16 22:59N 60°27' E 005°01'612.1
2017-Nov-16 22:30N 60°32' E 004°56'611.8
2017-Nov-16 22:00N 60°38' E 004°52'611.7
2017-Nov-16 21:30N 60°43' E 004°48'511.1
2017-Nov-16 21:00N 60°48' E 004°44'5 9.2
2017-Nov-16 20:30N 60°53' E 004°46'510.3
2017-Nov-16 20:00N 60°58' E 004°45'510.0
2017-Nov-16 19:30N 61°02' E 004°52'611.9
2017-Nov-16 19:00N 61°06' E 005°01'612.2
2017-Nov-16 18:30N 61°12' E 005°01'611.6
2017-Nov-16 18:00N 61°17' E 004°55'5 9.7
2017-Nov-16 17:29N 61°20' E 005°03'611.9
2017-Nov-16 17:00N 61°25' E 004°58'611.7
2017-Nov-16 16:30N 61°31' E 004°60'511.1
2017-Nov-16 16:00N 61°36' E 004°58'611.4
2017-Nov-16 15:30N 61°42' E 004°57'611.3
2017-Nov-16 15:00N 61°47' E 005°03'611.7
2017-Nov-16 14:30N 61°50' E 005°14'4 8.3
2017-Nov-16 14:00N 61°53' E 005°10'510.4
2017-Nov-16 13:30N 61°58' E 005°09'611.8
2017-Nov-16 13:00N 62°04' E 005°07'611.5
2017-Nov-16 12:30N 62°10' E 005°04'4 8.9
2017-Nov-16 11:59N 62°13' E 005°11'612.4
2017-Nov-16 11:30N 62°10' E 005°22'611.4
2017-Nov-16 11:00N 62°11' E 005°34'612.5
2017-Nov-16 10:30N 62°12' E 005°47'612.1
2017-Nov-16 10:00N 62°16' E 005°58'612.0
2017-Nov-16 09:30N 62°20' E 006°06'611.2
2017-Nov-16 09:00N 62°26' E 006°02'611.6
2017-Nov-16 08:30N 62°31' E 006°09'2 5.0
2017-Nov-16 08:00N 62°33' E 006°08'0 0.0
2017-Nov-16 07:30N 62°33' E 006°08'0 0.6
2017-Nov-16 07:00N 62°33' E 006°09'1 1.5
2017-Nov-16 06:30N 62°34' E 006°09'0 0.9
2017-Nov-16 06:00N 62°34' E 006°09'0 0.7
2017-Nov-16 05:30N 62°34' E 006°10'1 1.4
2017-Nov-16 05:00N 62°34' E 006°11'1 2.6
2017-Nov-16 04:30N 62°35' E 006°14'2 4.0
2017-Nov-16 04:00N 62°36' E 006°17'2 4.5
2017-Nov-16 03:30N 62°38' E 006°21'3 5.1
2017-Nov-16 03:00N 62°40' E 006°25'3 5.3
2017-Nov-16 02:30N 62°42' E 006°28'2 5.0
2017-Nov-16 02:00N 62°44' E 006°30'3 5.4
2017-Nov-16 01:30N 62°46' E 006°33'2 4.9
2017-Nov-16 01:00N 62°48' E 006°37'3 6.0
2017-Nov-16 00:30N 62°51' E 006°40'4 7.3
2017-Nov-16 00:00N 62°54' E 006°45'5 9.2
2017-Nov-15 23:30N 62°57' E 006°51'4 8.8
2017-Nov-15 23:00N 62°60' E 006°59'5 9.7
2017-Nov-15 22:30N 63°01' E 007°09'5 9.5
2017-Nov-15 22:00N 63°03' E 007°19'5 9.5
2017-Nov-15 21:30N 63°05' E 007°28'4 7.9
2017-Nov-15 21:00N 63°07' E 007°35'3 5.7
2017-Nov-15 20:30N 63°09' E 007°41'3 5.8
2017-Nov-15 20:00N 63°11' E 007°46'2 5.0
2017-Nov-15 19:30N 63°12' E 007°50'2 4.0
2017-Nov-15 19:00N 63°13' E 007°55'1 2.0
2017-Nov-15 18:30N 63°13' E 007°57'1 2.2
2017-Nov-15 18:00N 63°14' E 007°59'1 2.2
2017-Nov-15 17:30N 63°14' E 008°01'1 2.6
2017-Nov-15 17:00N 63°15' E 008°03'1 2.2
2017-Nov-15 16:30N 63°15' E 008°05'1 2.5
2017-Nov-15 16:00N 63°16' E 008°08'2 3.0
2017-Nov-15 15:30N 63°17' E 008°10'2 3.2
2017-Nov-15 14:59N 63°18' E 008°13'1 2.4
2017-Nov-15 14:30N 63°19' E 008°15'2 3.3
2017-Nov-15 14:00N 63°20' E 008°18'2 3.8
2017-Nov-15 13:30N 63°21' E 008°21'2 4.6
2017-Nov-15 13:00N 63°23' E 008°25'2 4.6
2017-Nov-15 12:29N 63°24' E 008°29'2 4.1
2017-Nov-15 12:00N 63°25' E 008°34'2 4.1
2017-Nov-15 11:30N 63°25' E 008°38'2 4.3
2017-Nov-15 10:59N 63°26' E 008°43'2 4.7
2017-Nov-15 10:30N 63°27' E 008°47'3 6.9
2017-Nov-15 10:00N 63°28' E 008°55'4 7.1
2017-Nov-15 09:30N 63°29' E 009°02'4 7.8
2017-Nov-15 09:00N 63°31' E 009°10'4 7.6
2017-Nov-15 08:30N 63°33' E 009°17'4 8.4
2017-Nov-15 08:00N 63°35' E 009°25'5 9.1
2017-Nov-15 07:30N 63°39' E 009°29'4 8.9
2017-Nov-15 07:00N 63°43' E 009°32'4 8.6
2017-Nov-15 06:29N 63°48' E 009°34'4 9.1
2017-Nov-15 06:00N 63°51' E 009°40'5 9.1
2017-Nov-15 05:30N 63°55' E 009°47'5 9.2
2017-Nov-15 05:00N 63°58' E 009°53'5 9.1
2017-Nov-15 04:30N 64°02' E 010°00'3 6.7
2017-Nov-15 04:00N 64°05' E 010°00'5 9.2
2017-Nov-15 03:30N 64°09' E 010°06'5 9.5
2017-Nov-15 03:00N 64°13' E 010°12'4 9.2
2017-Nov-15 02:30N 64°16' E 010°19'5 9.4
2017-Nov-15 01:59N 64°20' E 010°27'4 9.1
2017-Nov-15 01:30N 64°24' E 010°26'4 8.8
2017-Nov-15 01:00N 64°28' E 010°29'5 9.3
2017-Nov-15 00:30N 64°32' E 010°37'5 9.3
2017-Nov-15 00:00N 64°36' E 010°43'5 9.8
2017-Nov-14 23:30N 64°37' E 010°53'611.0
2017-Nov-14 23:00N 64°35' E 011°04'510.3
2017-Nov-14 22:30N 64°30' E 011°09'0 0.9
2017-Nov-14 22:00N 64°30' E 011°10'0 0.0
2017-Nov-14 21:30N 64°30' E 011°10'0 0.0
2017-Nov-14 21:00N 64°30' E 011°10'0 0.0
2017-Nov-14 20:30N 64°30' E 011°10'0 0.0
2017-Nov-14 20:00N 64°30' E 011°10'0 0.0
2017-Nov-14 19:30N 64°30' E 011°10'0 0.0
2017-Nov-14 19:00N 64°30' E 011°10'0 0.0
2017-Nov-14 18:30N 64°30' E 011°10'0 0.0
2017-Nov-14 17:59N 64°30' E 011°10'0 0.0
2017-Nov-14 17:30N 64°30' E 011°10'0 0.0
2017-Nov-14 17:00N 64°30' E 011°10'0 0.0
2017-Nov-14 16:29N 64°30' E 011°10'0 0.0
2017-Nov-14 16:00N 64°30' E 011°10'0 0.0
2017-Nov-14 15:30N 64°30' E 011°10'0 0.0
2017-Nov-14 15:00N 64°30' E 011°10'4 6.9
2017-Nov-14 14:30N 64°33' E 011°07'5 9.7
2017-Nov-14 14:00N 64°37' E 010°60'510.2
2017-Nov-14 13:30N 64°38' E 010°49'510.4
2017-Nov-14 13:00N 64°40' E 010°37'5 9.9
2017-Nov-14 12:30N 64°42' E 010°27'3 5.9
2017-Nov-14 11:56N 64°44' E 010°20'3 7.2
2017-Nov-14 11:30N 64°42' E 010°26'4 8.3
2017-Nov-14 11:00N 64°40' E 010°34'4 8.1
2017-Nov-14 10:30N 64°41' E 010°44'4 8.5
2017-Nov-14 10:00N 64°42' E 010°52'4 7.8
2017-Nov-14 09:30N 64°45' E 010°59'2 5.0
2017-Nov-14 09:00N 64°47' E 011°03'3 6.0
2017-Nov-14 08:30N 64°49' E 011°08'3 6.8
2017-Nov-14 08:00N 64°51' E 011°14'0 0.9
2017-Nov-14 07:30N 64°52' E 011°15'0 0.0
2017-Nov-14 07:00N 64°52' E 011°15'0 0.0
2017-Nov-14 06:30N 64°52' E 011°15'0 0.0
2017-Nov-14 06:00N 64°52' E 011°15'0 0.0
2017-Nov-14 05:30N 64°52' E 011°15'0 0.0
2017-Nov-14 05:00N 64°52' E 011°15'0 0.0
2017-Nov-14 04:30N 64°52' E 011°15'0 0.0
2017-Nov-14 04:00N 64°52' E 011°15'0 0.0
2017-Nov-14 03:30N 64°52' E 011°15'0 0.0
2017-Nov-14 03:00N 64°52' E 011°15'0 0.0
2017-Nov-14 02:30N 64°52' E 011°15'0 0.0
2017-Nov-14 02:00N 64°52' E 011°15'  

Dump ship's entire track history